sensor_id;sensor_type;location;lat;lon;timestamp;pressure;altitude;pressure_sealevel;temperature;humidity
9257;BME280;4665;51.368;6.782;2023-08-06T00:01:51;100213.34;;;15.18;100.00
9257;BME280;4665;51.368;6.782;2023-08-06T00:04:16;100199.06;;;15.10;100.00
9257;BME280;4665;51.368;6.782;2023-08-06T00:06:42;100215.41;;;15.15;100.00
9257;BME280;4665;51.368;6.782;2023-08-06T00:09:07;100216.03;;;15.18;100.00
9257;BME280;4665;51.368;6.782;2023-08-06T00:11:33;100213.75;;;15.14;100.00
9257;BME280;4665;51.368;6.782;2023-08-06T00:13:59;100211.06;;;15.14;100.00
9257;BME280;4665;51.368;6.782;2023-08-06T00:16:24;100185.44;;;15.05;100.00
9257;BME280;4665;51.368;6.782;2023-08-06T00:18:50;100203.66;;;15.17;100.00
9257;BME280;4665;51.368;6.782;2023-08-06T00:21:15;100194.97;;;15.14;100.00
9257;BME280;4665;51.368;6.782;2023-08-06T00:23:41;100187.69;;;15.08;100.00
9257;BME280;4665;51.368;6.782;2023-08-06T00:26:07;100193.09;;;15.15;100.00
9257;BME280;4665;51.368;6.782;2023-08-06T00:28:32;100183.59;;;15.12;100.00
9257;BME280;4665;51.368;6.782;2023-08-06T00:30:58;100185.06;;;15.15;100.00
9257;BME280;4665;51.368;6.782;2023-08-06T00:33:24;100180.28;;;15.10;100.00
9257;BME280;4665;51.368;6.782;2023-08-06T00:35:49;100186.91;;;15.14;100.00
9257;BME280;4665;51.368;6.782;2023-08-06T00:38:15;100182.78;;;15.12;100.00
9257;BME280;4665;51.368;6.782;2023-08-06T00:40:40;100181.56;;;15.14;100.00
9257;BME280;4665;51.368;6.782;2023-08-06T00:43:06;100168.09;;;15.08;100.00
9257;BME280;4665;51.368;6.782;2023-08-06T00:45:35;100185.66;;;15.10;100.00
9257;BME280;4665;51.368;6.782;2023-08-06T00:48:01;100182.97;;;15.10;100.00
9257;BME280;4665;51.368;6.782;2023-08-06T00:50:27;100177.59;;;15.10;100.00
9257;BME280;4665;51.368;6.782;2023-08-06T00:52:53;100174.06;;;15.03;100.00
9257;BME280;4665;51.368;6.782;2023-08-06T00:55:19;100179.44;;;15.03;100.00
9257;BME280;4665;51.368;6.782;2023-08-06T00:57:45;100187.69;;;15.02;100.00
9257;BME280;4665;51.368;6.782;2023-08-06T01:00:11;100182.50;;;15.00;100.00
9257;BME280;4665;51.368;6.782;2023-08-06T01:02:37;100175.88;;;14.96;100.00
9257;BME280;4665;51.368;6.782;2023-08-06T01:05:04;100171.34;;;14.97;100.00
9257;BME280;4665;51.368;6.782;2023-08-06T01:07:54;100170.94;;;14.93;100.00
9257;BME280;4665;51.368;6.782;2023-08-06T01:15:35;100168.44;;;14.91;100.00
9257;BME280;4665;51.368;6.782;2023-08-06T01:18:03;100165.13;;;14.89;100.00
9257;BME280;4665;51.368;6.782;2023-08-06T01:20:29;100165.75;;;14.91;100.00
9257;BME280;4665;51.368;6.782;2023-08-06T01:22:55;100159.13;;;14.87;100.00
9257;BME280;4665;51.368;6.782;2023-08-06T01:25:24;100168.84;;;14.88;100.00
9257;BME280;4665;51.368;6.782;2023-08-06T01:27:56;100169.06;;;14.93;100.00
9257;BME280;4665;51.368;6.782;2023-08-06T01:30:29;100167.41;;;14.92;100.00
9257;BME280;4665;51.368;6.782;2023-08-06T01:33:00;100174.44;;;14.93;100.00
9257;BME280;4665;51.368;6.782;2023-08-06T01:35:29;100170.94;;;14.93;100.00
9257;BME280;4665;51.368;6.782;2023-08-06T01:37:55;100160.00;;;14.94;100.00
9257;BME280;4665;51.368;6.782;2023-08-06T01:40:21;100166.84;;;14.97;100.00
9257;BME280;4665;51.368;6.782;2023-08-06T01:42:47;100162.47;;;14.96;100.00
9257;BME280;4665;51.368;6.782;2023-08-06T01:45:12;100163.94;;;14.99;100.00
9257;BME280;4665;51.368;6.782;2023-08-06T01:47:38;100161.25;;;14.99;100.00
9257;BME280;4665;51.368;6.782;2023-08-06T01:50:04;100152.56;;;14.97;100.00
9257;BME280;4665;51.368;6.782;2023-08-06T01:52:29;100157.09;;;14.96;100.00
9257;BME280;4665;51.368;6.782;2023-08-06T01:54:55;100140.38;;;14.94;100.00
9257;BME280;4665;51.368;6.782;2023-08-06T01:57:21;100142.44;;;14.92;100.00
9257;BME280;4665;51.368;6.782;2023-08-06T01:59:46;100145.38;;;14.97;100.00
9257;BME280;4665;51.368;6.782;2023-08-06T02:02:12;100144.34;;;14.98;100.00
9257;BME280;4665;51.368;6.782;2023-08-06T02:04:38;100147.00;;;14.98;100.00
9257;BME280;4665;51.368;6.782;2023-08-06T02:07:03;100145.97;;;14.99;100.00
9257;BME280;4665;51.368;6.782;2023-08-06T02:09:29;100144.16;;;15.00;100.00
9257;BME280;4665;51.368;6.782;2023-08-06T02:11:54;100141.47;;;15.00;100.00
9257;BME280;4665;51.368;6.782;2023-08-06T02:14:19;100133.78;;;14.97;100.00
9257;BME280;4665;51.368;6.782;2023-08-06T02:16:45;100145.16;;;14.99;100.00
9257;BME280;4665;51.368;6.782;2023-08-06T02:19:10;100143.28;;;14.99;100.00
9257;BME280;4665;51.368;6.782;2023-08-06T02:21:36;100152.19;;;15.00;100.00
9257;BME280;4665;51.368;6.782;2023-08-06T02:24:02;100142.28;;;15.00;100.00
9257;BME280;4665;51.368;6.782;2023-08-06T02:26:27;100131.56;;;15.00;100.00
9257;BME280;4665;51.368;6.782;2023-08-06T02:28:53;100127.19;;;14.99;100.00
9257;BME280;4665;51.368;6.782;2023-08-06T02:31:18;100134.66;;;14.97;100.00
9257;BME280;4665;51.368;6.782;2023-08-06T02:33:43;100133.59;;;14.98;100.00
9257;BME280;4665;51.368;6.782;2023-08-06T02:36:09;100122.47;;;14.94;100.00
9257;BME280;4665;51.368;6.782;2023-08-06T02:38:34;100128.84;;;14.93;100.00
9257;BME280;4665;51.368;6.782;2023-08-06T02:41:03;100130.28;;;14.96;100.00
9257;BME280;4665;51.368;6.782;2023-08-06T02:43:29;100132.16;;;14.96;100.00
9257;BME280;4665;51.368;6.782;2023-08-06T02:45:59;100129.66;;;14.94;100.00
9257;BME280;4665;51.368;6.782;2023-08-06T02:48:24;100116.47;;;14.92;100.00
9257;BME280;4665;51.368;6.782;2023-08-06T02:50:50;100119.56;;;14.96;100.00
9257;BME280;4665;51.368;6.782;2023-08-06T02:53:15;100121.44;;;14.96;100.00
9257;BME280;4665;51.368;6.782;2023-08-06T02:55:50;100111.53;;;14.96;100.00
9257;BME280;4665;51.368;6.782;2023-08-06T02:58:16;100115.25;;;14.95;100.00
9257;BME280;4665;51.368;6.782;2023-08-06T03:00:43;100112.56;;;14.95;100.00
9257;BME280;4665;51.368;6.782;2023-08-06T03:03:09;100111.53;;;14.96;100.00
9257;BME280;4665;51.368;6.782;2023-08-06T03:05:35;100103.47;;;14.96;100.00
9257;BME280;4665;51.368;6.782;2023-08-06T03:08:00;100102.84;;;14.94;100.00
9257;BME280;4665;51.368;6.782;2023-08-06T03:10:26;100103.69;;;14.94;100.00
9257;BME280;4665;51.368;6.782;2023-08-06T03:12:51;100107.84;;;14.97;100.00
9257;BME280;4665;51.368;6.782;2023-08-06T03:17:47;100104.09;;;14.98;100.00
9257;BME280;4665;51.368;6.782;2023-08-06T03:20:13;100103.91;;;15.00;100.00
9257;BME280;4665;51.368;6.782;2023-08-06T03:22:38;100088.00;;;14.98;100.00
9257;BME280;4665;51.368;6.782;2023-08-06T03:25:04;100095.44;;;14.96;100.00
9257;BME280;4665;51.368;6.782;2023-08-06T03:27:29;100095.44;;;14.96;100.00
9257;BME280;4665;51.368;6.782;2023-08-06T03:29:55;100095.03;;;14.92;100.00
9257;BME280;4665;51.368;6.782;2023-08-06T03:32:20;100102.47;;;14.97;100.00
9257;BME280;4665;51.368;6.782;2023-08-06T03:34:46;100100.78;;;14.96;100.00
9257;BME280;4665;51.368;6.782;2023-08-06T03:37:11;100099.16;;;14.95;100.00
9257;BME280;4665;51.368;6.782;2023-08-06T03:39:37;100097.28;;;14.96;100.00
9257;BME280;4665;51.368;6.782;2023-08-06T03:42:02;100092.75;;;14.96;100.00
9257;BME280;4665;51.368;6.782;2023-08-06T03:44:28;100093.16;;;14.93;100.00
9257;BME280;4665;51.368;6.782;2023-08-06T03:46:53;100099.53;;;14.92;100.00
9257;BME280;4665;51.368;6.782;2023-08-06T03:49:19;100103.44;;;14.89;100.00
9257;BME280;4665;51.368;6.782;2023-08-06T03:51:44;100089.00;;;14.84;100.00
9257;BME280;4665;51.368;6.782;2023-08-06T03:54:10;100093.31;;;14.85;100.00
9257;BME280;4665;51.368;6.782;2023-08-06T03:56:35;100098.03;;;14.83;100.00
9257;BME280;4665;51.368;6.782;2023-08-06T03:59:01;100098.25;;;14.81;100.00
9257;BME280;4665;51.368;6.782;2023-08-06T04:01:26;100101.34;;;14.85;100.00
9257;BME280;4665;51.368;6.782;2023-08-06T04:03:52;100095.16;;;14.84;100.00
9257;BME280;4665;51.368;6.782;2023-08-06T04:06:17;100095.16;;;14.84;100.00
9257;BME280;4665;51.368;6.782;2023-08-06T04:08:42;100107.34;;;14.87;100.00
9257;BME280;4665;51.368;6.782;2023-08-06T04:11:08;100086.31;;;14.84;100.00
9257;BME280;4665;51.368;6.782;2023-08-06T04:13:33;100094.97;;;14.86;100.00
9257;BME280;4665;51.368;6.782;2023-08-06T04:16:02;100088.81;;;14.85;100.00
9257;BME280;4665;51.368;6.782;2023-08-06T04:18:28;100087.56;;;14.88;100.00
9257;BME280;4665;51.368;6.782;2023-08-06T04:20:53;100090.88;;;14.90;100.00
9257;BME280;4665;51.368;6.782;2023-08-06T04:23:20;100083.84;;;14.89;100.00
9257;BME280;4665;51.368;6.782;2023-08-06T04:25:46;100091.28;;;14.93;100.00
9257;BME280;4665;51.368;6.782;2023-08-06T04:28:11;100088.44;;;14.95;100.00
9257;BME280;4665;51.368;6.782;2023-08-06T04:30:37;100091.75;;;14.97;100.00
9257;BME280;4665;51.368;6.782;2023-08-06T04:33:03;100089.06;;;14.97;100.00
9257;BME280;4665;51.368;6.782;2023-08-06T04:35:28;100091.75;;;14.97;100.00
9257;BME280;4665;51.368;6.782;2023-08-06T04:37:54;100096.69;;;15.00;100.00
9257;BME280;4665;51.368;6.782;2023-08-06T04:40:19;100083.47;;;14.99;100.00
9257;BME280;4665;51.368;6.782;2023-08-06T04:42:45;100095.66;;;15.01;100.00
9257;BME280;4665;51.368;6.782;2023-08-06T04:45:11;100089.28;;;15.02;100.00
9257;BME280;4665;51.368;6.782;2023-08-06T04:47:36;100087.59;;;15.01;100.00
9257;BME280;4665;51.368;6.782;2023-08-06T04:50:02;100088.00;;;14.98;100.00
9257;BME280;4665;51.368;6.782;2023-08-06T04:52:28;100091.75;;;15.04;100.00
9257;BME280;4665;51.368;6.782;2023-08-06T04:54:54;100087.59;;;15.01;100.00
9257;BME280;4665;51.368;6.782;2023-08-06T04:57:20;100089.28;;;15.02;100.00
9257;BME280;4665;51.368;6.782;2023-08-06T04:59:46;100092.78;;;15.03;100.00
9257;BME280;4665;51.368;6.782;2023-08-06T05:02:11;100092.34;;;14.99;100.00
9257;BME280;4665;51.368;6.782;2023-08-06T05:04:37;100095.03;;;14.99;100.00
9257;BME280;4665;51.368;6.782;2023-08-06T05:07:03;100095.03;;;14.99;100.00
9257;BME280;4665;51.368;6.782;2023-08-06T05:09:28;100099.19;;;15.02;100.00
9257;BME280;4665;51.368;6.782;2023-08-06T05:11:54;100110.72;;;15.02;100.00
9257;BME280;4665;51.368;6.782;2023-08-06T05:14:19;100097.09;;;15.04;100.00
9257;BME280;4665;51.368;6.782;2023-08-06T05:16:45;100109.50;;;15.05;100.00
9257;BME280;4665;51.368;6.782;2023-08-06T05:19:10;100104.13;;;15.05;100.00
9257;BME280;4665;51.368;6.782;2023-08-06T05:21:36;100106.63;;;15.06;100.00
9257;BME280;4665;51.368;6.782;2023-08-06T05:24:01;100103.72;;;15.08;100.00
9257;BME280;4665;51.368;6.782;2023-08-06T05:26:27;100114.69;;;15.06;100.00
9257;BME280;4665;51.368;6.782;2023-08-06T05:28:52;100116.94;;;15.09;100.00
9257;BME280;4665;51.368;6.782;2023-08-06T05:31:17;100119.63;;;15.09;100.00
9257;BME280;4665;51.368;6.782;2023-08-06T05:33:43;100117.78;;;15.10;100.00
9257;BME280;4665;51.368;6.782;2023-08-06T05:36:08;100120.25;;;15.11;100.00
9257;BME280;4665;51.368;6.782;2023-08-06T05:38:34;100124.59;;;15.12;100.00
9257;BME280;4665;51.368;6.782;2023-08-06T05:40:59;100113.22;;;15.10;100.00
9257;BME280;4665;51.368;6.782;2023-08-06T05:43:25;100121.72;;;15.14;100.00
9257;BME280;4665;51.368;6.782;2023-08-06T05:45:50;100121.09;;;15.12;100.00
9257;BME280;4665;51.368;6.782;2023-08-06T05:48:16;100127.28;;;15.12;100.00
9257;BME280;4665;51.368;6.782;2023-08-06T05:50:42;100125.63;;;15.11;100.00
9257;BME280;4665;51.368;6.782;2023-08-06T05:53:07;100124.19;;;15.09;100.00
9257;BME280;4665;51.368;6.782;2023-08-06T05:55:33;100132.00;;;15.10;100.00
9257;BME280;4665;51.368;6.782;2023-08-06T05:57:59;100126.00;;;15.08;100.00
9257;BME280;4665;51.368;6.782;2023-08-06T06:00:25;100126.00;;;15.08;100.00
9257;BME280;4665;51.368;6.782;2023-08-06T06:02:50;100124.81;;;15.11;100.00
9257;BME280;4665;51.368;6.782;2023-08-06T06:05:16;100130.38;;;15.09;100.00
9257;BME280;4665;51.368;6.782;2023-08-06T06:07:41;100125.19;;;15.08;100.00
9257;BME280;4665;51.368;6.782;2023-08-06T06:10:07;100120.25;;;15.11;100.00
9257;BME280;4665;51.368;6.782;2023-08-06T06:12:32;100130.78;;;15.13;100.00
9257;BME280;4665;51.368;6.782;2023-08-06T06:14:59;100144.84;;;15.22;100.00
9257;BME280;4665;51.368;6.782;2023-08-06T06:17:26;100141.38;;;15.28;100.00
9257;BME280;4665;51.368;6.782;2023-08-06T06:19:52;100144.50;;;15.38;100.00
9257;BME280;4665;51.368;6.782;2023-08-06T06:22:17;100142.69;;;15.52;100.00
9257;BME280;4665;51.368;6.782;2023-08-06T06:24:42;100142.72;;;15.65;100.00
9257;BME280;4665;51.368;6.782;2023-08-06T06:27:08;100138.66;;;15.76;100.00
9257;BME280;4665;51.368;6.782;2023-08-06T06:29:33;100142.19;;;15.83;100.00
9257;BME280;4665;51.368;6.782;2023-08-06T06:31:59;100148.38;;;15.97;100.00
9257;BME280;4665;51.368;6.782;2023-08-06T06:34:24;100166.16;;;16.11;100.00
9257;BME280;4665;51.368;6.782;2023-08-06T06:36:50;100156.44;;;16.17;100.00
9257;BME280;4665;51.368;6.782;2023-08-06T06:39:15;100153.97;;;16.29;100.00
9257;BME280;4665;51.368;6.782;2023-08-06T06:41:41;100152.13;;;16.29;100.00
9257;BME280;4665;51.368;6.782;2023-08-06T06:44:06;100157.69;;;16.28;100.00
9257;BME280;4665;51.368;6.782;2023-08-06T06:46:32;100159.13;;;16.24;100.00
9257;BME280;4665;51.368;6.782;2023-08-06T06:48:57;100162.03;;;16.15;100.00
9257;BME280;4665;51.368;6.782;2023-08-06T06:51:23;100158.50;;;16.15;100.00
9257;BME280;4665;51.368;6.782;2023-08-06T06:53:48;100155.19;;;16.13;100.00
9257;BME280;4665;51.368;6.782;2023-08-06T06:56:14;100151.50;;;16.14;100.00
9257;BME280;4665;51.368;6.782;2023-08-06T06:58:39;100138.69;;;16.16;100.00
9257;BME280;4665;51.368;6.782;2023-08-06T07:01:06;100148.81;;;16.20;100.00
9257;BME280;4665;51.368;6.782;2023-08-06T07:03:32;100145.31;;;16.20;100.00
9257;BME280;4665;51.368;6.782;2023-08-06T07:05:58;100159.13;;;16.24;100.00
9257;BME280;4665;51.368;6.782;2023-08-06T07:08:25;100153.56;;;16.32;100.00
9257;BME280;4665;51.368;6.782;2023-08-06T07:10:50;100150.66;;;16.40;100.00
9257;BME280;4665;51.368;6.782;2023-08-06T07:13:16;100150.03;;;16.51;100.00
9257;BME280;4665;51.368;6.782;2023-08-06T07:15:42;100149.19;;;16.64;100.00
9257;BME280;4665;51.368;6.782;2023-08-06T07:18:07;100153.91;;;16.75;100.00
9257;BME280;4665;51.368;6.782;2023-08-06T07:20:33;100159.31;;;16.82;100.00
9257;BME280;4665;51.368;6.782;2023-08-06T07:23:00;100140.88;;;16.72;100.00
9257;BME280;4665;51.368;6.782;2023-08-06T07:25:25;100148.97;;;16.59;100.00
9257;BME280;4665;51.368;6.782;2023-08-06T07:27:51;100147.75;;;16.55;100.00
9257;BME280;4665;51.368;6.782;2023-08-06T07:30:16;100155.19;;;16.53;100.00
9257;BME280;4665;51.368;6.782;2023-08-06T07:32:42;100166.78;;;16.53;100.00
9257;BME280;4665;51.368;6.782;2023-08-06T07:35:08;100157.06;;;16.46;100.00
9257;BME280;4665;51.368;6.782;2023-08-06T07:37:38;100162.03;;;16.42;100.00
9257;BME280;4665;51.368;6.782;2023-08-06T07:40:29;100164.72;;;16.35;100.00
9257;BME280;4665;51.368;6.782;2023-08-06T07:42:55;100164.31;;;16.32;100.00
9257;BME280;4665;51.368;6.782;2023-08-06T07:45:21;100169.06;;;16.23;100.00
9257;BME280;4665;51.368;6.782;2023-08-06T07:47:46;100168.00;;;16.24;100.00
9257;BME280;4665;51.368;6.782;2023-08-06T07:50:26;100168.44;;;16.21;100.00
9257;BME280;4665;51.368;6.782;2023-08-06T07:52:52;100172.56;;;16.17;100.00
9257;BME280;4665;51.368;6.782;2023-08-06T07:55:17;100168.44;;;16.14;100.00
9257;BME280;4665;51.368;6.782;2023-08-06T07:57:43;100165.34;;;16.24;100.00
9257;BME280;4665;51.368;6.782;2023-08-06T08:00:08;100168.66;;;16.33;100.00
9257;BME280;4665;51.368;6.782;2023-08-06T08:02:34;100158.31;;;16.36;100.00
9257;BME280;4665;51.368;6.782;2023-08-06T08:05:00;100169.91;;;16.44;100.00
9257;BME280;4665;51.368;6.782;2023-08-06T08:07:25;100169.28;;;16.41;100.00
9257;BME280;4665;51.368;6.782;2023-08-06T08:09:53;100173.19;;;16.46;100.00
9257;BME280;4665;51.368;6.782;2023-08-06T08:12:19;100182.28;;;16.51;100.00
9257;BME280;4665;51.368;6.782;2023-08-06T08:14:50;100179.41;;;16.53;100.00
9257;BME280;4665;51.368;6.782;2023-08-06T08:17:38;100180.41;;;16.52;100.00
9257;BME280;4665;51.368;6.782;2023-08-06T08:20:04;100175.66;;;16.47;100.00
9257;BME280;4665;51.368;6.782;2023-08-06T08:22:30;100182.09;;;16.46;100.00
9257;BME280;4665;51.368;6.782;2023-08-06T08:25:04;100191.16;;;16.45;100.00
9257;BME280;4665;51.368;6.782;2023-08-06T08:27:30;100190.16;;;16.46;100.00
9257;BME280;4665;51.368;6.782;2023-08-06T08:29:56;100186.22;;;16.42;100.00
9257;BME280;4665;51.368;6.782;2023-08-06T08:32:21;100190.16;;;16.39;100.00
9257;BME280;4665;51.368;6.782;2023-08-06T08:34:55;100189.53;;;16.37;100.00
9257;BME280;4665;51.368;6.782;2023-08-06T08:37:20;100194.09;;;16.37;100.00
9257;BME280;4665;51.368;6.782;2023-08-06T08:39:45;100190.34;;;16.31;100.00
9257;BME280;4665;51.368;6.782;2023-08-06T08:42:11;100183.31;;;16.30;100.00
9257;BME280;4665;51.368;6.782;2023-08-06T08:44:42;100190.78;;;16.41;100.00
9257;BME280;4665;51.368;6.782;2023-08-06T08:47:09;100177.13;;;16.43;100.00
9257;BME280;4665;51.368;6.782;2023-08-06T08:49:38;100184.59;;;16.48;100.00
9257;BME280;4665;51.368;6.782;2023-08-06T08:52:04;100189.09;;;16.54;100.00
9257;BME280;4665;51.368;6.782;2023-08-06T08:54:37;100181.03;;;16.54;100.00
9257;BME280;4665;51.368;6.782;2023-08-06T08:57:03;100176.47;;;16.54;100.00
9257;BME280;4665;51.368;6.782;2023-08-06T08:59:29;100183.94;;;16.59;100.00
9257;BME280;4665;51.368;6.782;2023-08-06T09:01:55;100186.59;;;16.66;100.00
9257;BME280;4665;51.368;6.782;2023-08-06T09:04:23;100195.09;;;16.69;100.00
9257;BME280;4665;51.368;6.782;2023-08-06T09:06:53;100191.59;;;16.69;100.00
9257;BME280;4665;51.368;6.782;2023-08-06T09:09:33;100201.91;;;16.72;100.00
9257;BME280;4665;51.368;6.782;2023-08-06T09:12:07;100201.09;;;16.71;100.00
9257;BME280;4665;51.368;6.782;2023-08-06T09:14:36;100200.69;;;16.74;100.00
9257;BME280;4665;51.368;6.782;2023-08-06T09:17:02;100199.03;;;16.73;100.00
9257;BME280;4665;51.368;6.782;2023-08-06T09:19:27;100209.16;;;16.78;100.00
9257;BME280;4665;51.368;6.782;2023-08-06T09:21:55;100207.94;;;16.80;100.00
9257;BME280;4665;51.368;6.782;2023-08-06T09:24:20;100204.59;;;16.78;100.00
9257;BME280;4665;51.368;6.782;2023-08-06T09:26:47;100210.63;;;16.80;100.00
9257;BME280;4665;51.368;6.782;2023-08-06T09:29:12;100202.34;;;16.82;100.00
9257;BME280;4665;51.368;6.782;2023-08-06T09:31:42;100204.41;;;16.87;100.00
9257;BME280;4665;51.368;6.782;2023-08-06T09:34:15;100208.75;;;16.88;100.00
9257;BME280;4665;51.368;6.782;2023-08-06T09:36:42;100207.72;;;16.89;100.00
9257;BME280;4665;51.368;6.782;2023-08-06T09:39:15;100203.38;;;16.94;100.00
9257;BME280;4665;51.368;6.782;2023-08-06T09:41:42;100214.53;;;16.98;100.00
9257;BME280;4665;51.368;6.782;2023-08-06T09:44:18;100214.31;;;17.06;100.00
9257;BME280;4665;51.368;6.782;2023-08-06T09:49:14;100222.59;;;16.91;100.00
9257;BME280;4665;51.368;6.782;2023-08-06T09:51:39;100228.22;;;16.90;100.00
9257;BME280;4665;51.368;6.782;2023-08-06T09:54:06;100242.69;;;16.89;100.00
9257;BME280;4665;51.368;6.782;2023-08-06T09:56:36;100238.75;;;16.85;100.00
9257;BME280;4665;51.368;6.782;2023-08-06T09:59:04;100231.72;;;16.83;100.00
9257;BME280;4665;51.368;6.782;2023-08-06T10:01:33;100233.59;;;16.83;100.00
9257;BME280;4665;51.368;6.782;2023-08-06T10:04:00;100229.25;;;16.82;100.00
9257;BME280;4665;51.368;6.782;2023-08-06T10:06:26;100233.59;;;16.83;100.00
9257;BME280;4665;51.368;6.782;2023-08-06T10:08:51;100232.34;;;16.86;100.00
9257;BME280;4665;51.368;6.782;2023-08-06T10:11:17;100238.56;;;16.86;100.00
9257;BME280;4665;51.368;6.782;2023-08-06T10:13:43;100242.25;;;16.92;100.00
9257;BME280;4665;51.368;6.782;2023-08-06T10:16:09;100243.09;;;16.92;100.00
9257;BME280;4665;51.368;6.782;2023-08-06T10:18:37;100242.06;;;16.87;100.00
9257;BME280;4665;51.368;6.782;2023-08-06T10:21:08;100236.69;;;16.87;100.00
9257;BME280;4665;51.368;6.782;2023-08-06T10:23:35;100242.47;;;16.83;100.00
9257;BME280;4665;51.368;6.782;2023-08-06T10:26:02;100251.38;;;16.84;100.00
9257;BME280;4665;51.368;6.782;2023-08-06T10:31:58;100269.75;;;16.54;100.00
9257;BME280;4665;51.368;6.782;2023-08-06T10:34:25;100273.91;;;16.43;100.00
9257;BME280;4665;51.368;6.782;2023-08-06T10:36:54;100275.13;;;16.27;100.00
9257;BME280;4665;51.368;6.782;2023-08-06T10:39:20;100264.75;;;16.11;100.00
9257;BME280;4665;51.368;6.782;2023-08-06T10:41:45;100274.25;;;16.07;100.00
9257;BME280;4665;51.368;6.782;2023-08-06T10:44:11;100282.28;;;16.00;100.00
9257;BME280;4665;51.368;6.782;2023-08-06T10:46:37;100297.53;;;15.86;100.00
9257;BME280;4665;51.368;6.782;2023-08-06T10:49:03;100295.63;;;15.73;100.00
9257;BME280;4665;51.368;6.782;2023-08-06T10:51:29;100308.78;;;15.68;100.00
9257;BME280;4665;51.368;6.782;2023-08-06T10:53:55;100320.66;;;15.52;100.00
9257;BME280;4665;51.368;6.782;2023-08-06T10:56:24;100313.88;;;15.22;100.00
9257;BME280;4665;51.368;6.782;2023-08-06T10:58:53;100334.88;;;15.11;100.00
9257;BME280;4665;51.368;6.782;2023-08-06T11:01:18;100329.66;;;14.82;100.00
9257;BME280;4665;51.368;6.782;2023-08-06T11:03:46;100336.16;;;14.51;100.00
9257;BME280;4665;51.368;6.782;2023-08-06T11:06:20;100340.16;;;14.55;100.00
9257;BME280;4665;51.368;6.782;2023-08-06T11:08:53;100345.84;;;14.52;100.00
9257;BME280;4665;51.368;6.782;2023-08-06T11:11:21;100340.81;;;14.42;100.00
9257;BME280;4665;51.368;6.782;2023-08-06T11:13:49;100345.41;;;14.48;100.00
9257;BME280;4665;51.368;6.782;2023-08-06T11:16:24;100345.34;;;14.42;100.00
9257;BME280;4665;51.368;6.782;2023-08-06T11:18:50;100336.09;;;14.44;100.00
9257;BME280;4665;51.368;6.782;2023-08-06T11:21:20;100341.63;;;14.43;100.00
9257;BME280;4665;51.368;6.782;2023-08-06T11:23:45;100352.75;;;14.40;100.00
9257;BME280;4665;51.368;6.782;2023-08-06T11:26:12;100346.50;;;14.32;100.00
9257;BME280;4665;51.368;6.782;2023-08-06T11:28:37;100350.56;;;14.28;100.00
9257;BME280;4665;51.368;6.782;2023-08-06T11:31:03;100345.38;;;14.27;100.00
9257;BME280;4665;51.368;6.782;2023-08-06T11:33:29;100358.59;;;14.28;100.00
9257;BME280;4665;51.368;6.782;2023-08-06T11:35:57;100363.47;;;14.25;100.00
9257;BME280;4665;51.368;6.782;2023-08-06T11:38:29;100367.38;;;14.22;100.00
9257;BME280;4665;51.368;6.782;2023-08-06T11:40:55;100377.34;;;14.28;100.00
9257;BME280;4665;51.368;6.782;2023-08-06T11:43:21;100374.78;;;14.20;100.00
9257;BME280;4665;51.368;6.782;2023-08-06T11:45:48;100379.78;;;14.23;100.00
9257;BME280;4665;51.368;6.782;2023-08-06T11:48:14;100374.97;;;14.19;100.00
9257;BME280;4665;51.368;6.782;2023-08-06T11:50:40;100377.72;;;14.25;100.00
9257;BME280;4665;51.368;6.782;2023-08-06T11:53:05;100386.34;;;14.21;100.00
9257;BME280;4665;51.368;6.782;2023-08-06T11:55:31;100390.56;;;14.15;100.00
9257;BME280;4665;51.368;6.782;2023-08-06T11:57:57;100394.66;;;14.11;100.00
9257;BME280;4665;51.368;6.782;2023-08-06T12:00:26;100400.19;;;14.09;100.00
9257;BME280;4665;51.368;6.782;2023-08-06T12:02:52;100396.69;;;14.09;100.00
9257;BME280;4665;51.368;6.782;2023-08-06T12:05:23;100406.00;;;14.13;100.00
9257;BME280;4665;51.368;6.782;2023-08-06T12:07:51;100411.00;;;14.16;100.00
9257;BME280;4665;51.368;6.782;2023-08-06T12:10:17;100402.31;;;14.14;100.00
9257;BME280;4665;51.368;6.782;2023-08-06T12:12:44;100412.22;;;14.14;100.00
9257;BME280;4665;51.368;6.782;2023-08-06T12:15:10;100407.50;;;14.16;100.00
9257;BME280;4665;51.368;6.782;2023-08-06T12:17:36;100407.28;;;14.17;100.00
9257;BME280;4665;51.368;6.782;2023-08-06T12:20:03;100400.94;;;14.18;100.00
9257;BME280;4665;51.368;6.782;2023-08-06T12:22:32;100414.13;;;14.20;100.00
9257;BME280;4665;51.368;6.782;2023-08-06T12:25:02;100419.31;;;14.21;100.00
9257;BME280;4665;51.368;6.782;2023-08-06T12:27:28;100420.13;;;14.22;100.00
9257;BME280;4665;51.368;6.782;2023-08-06T12:29:54;100420.38;;;14.27;100.00
9257;BME280;4665;51.368;6.782;2023-08-06T12:32:19;100421.59;;;14.24;100.00
9257;BME280;4665;51.368;6.782;2023-08-06T12:34:45;100420.47;;;14.34;100.00
9257;BME280;4665;51.368;6.782;2023-08-06T12:37:10;100427.88;;;14.31;100.00
9257;BME280;4665;51.368;6.782;2023-08-06T12:39:37;100426.47;;;14.36;100.00
9257;BME280;4665;51.368;6.782;2023-08-06T12:42:04;100425.41;;;14.30;100.00
9257;BME280;4665;51.368;6.782;2023-08-06T12:44:29;100421.13;;;14.36;100.00
9257;BME280;4665;51.368;6.782;2023-08-06T12:46:55;100427.13;;;14.38;100.00
9257;BME280;4665;51.368;6.782;2023-08-06T12:49:22;100433.13;;;14.40;100.00
9257;BME280;4665;51.368;6.782;2023-08-06T12:51:53;100430.63;;;14.38;100.00
9257;BME280;4665;51.368;6.782;2023-08-06T12:54:20;100439.88;;;14.36;100.00
9257;BME280;4665;51.368;6.782;2023-08-06T12:56:46;100459.53;;;14.43;100.00
9257;BME280;4665;51.368;6.782;2023-08-06T12:59:14;100461.22;;;14.44;100.00
9257;BME280;4665;51.368;6.782;2023-08-06T13:01:40;100458.25;;;14.39;100.00
9257;BME280;4665;51.368;6.782;2023-08-06T13:04:05;100464.00;;;14.36;100.00
9257;BME280;4665;51.368;6.782;2023-08-06T13:06:31;100459.66;;;14.35;100.00
9257;BME280;4665;51.368;6.782;2023-08-06T13:09:02;100464.63;;;14.38;100.00
9257;BME280;4665;51.368;6.782;2023-08-06T13:11:28;100460.94;;;14.39;100.00